Esperanza — PD6464 — position and weather

sailwx.info

Track history (hours):
 
Tides and Currents Weather Stations Pressure Air Temp Water Temp Dewpoint Dewpoint Depression Visibility Wind Speed Wind Dir Waves Ship Positions

Esperanza

Last reported at 2017-Jul-22 19:09 UTC. Time now 2017-Aug-20 13:40 UTC.
Position N 43°45' W 005°21'.
Warning: this ship's position is 28 days out of date.

Length 72 m; draft 5 m.

Type: Other ship. MMSI: 244690000.

Date/timePositionNaut miles runAvg speedWind from/ knotsBaromVisibWave heightAir tempDewpointWater temp
2017-Jul-22 19:09N 43°45' W 005°21'2 6.0
2017-Jul-22 18:48N 43°45' W 005°23'2 5.9
2017-Jul-22 18:29N 43°45' W 005°26'  
2017-Jul-20 10:13N 39°16' W 009°51'2 7.4
2017-Jul-20 10:00N 39°15' W 009°51'4 7.4
2017-Jul-20 09:30N 39°11' W 009°51'4 7.5
2017-Jul-20 09:00N 39°07' W 009°51'4 7.4
2017-Jul-20 08:30N 39°04' W 009°51'4 7.4
2017-Jul-20 08:00N 38°60' W 009°51'4 7.5
2017-Jul-20 07:30N 38°56' W 009°51'4 7.6
2017-Jul-20 07:00N 38°52' W 009°51'4 7.7
2017-Jul-20 06:30N 38°48' W 009°51'4 7.8
2017-Jul-20 06:00N 38°45' W 009°51'4 7.8
2017-Jul-20 05:30N 38°41' W 009°50'4 7.5
2017-Jul-20 05:00N 38°37' W 009°49'4 7.5
2017-Jul-20 04:30N 38°33' W 009°48'4 7.6
2017-Jul-20 04:00N 38°30' W 009°47'4 7.7
2017-Jul-20 03:30N 38°26' W 009°46'  
2017-Jul-17 10:08N 37°24' W 000°48'3 9.0
2017-Jul-17 09:48N 37°26' W 000°45'15 8.4
2017-Jul-17 07:59N 37°38' W 000°33'5 8.5
2017-Jul-17 07:21N 37°43' W 000°36'0 0.8
2017-Jul-17 07:00N 37°43' W 000°36'1 1.1
2017-Jul-17 06:28N 37°43' W 000°36'0 0.4
2017-Jul-17 06:00N 37°43' W 000°36'0 0.9
2017-Jul-17 05:30N 37°43' W 000°36'0 0.5
2017-Jul-17 05:00N 37°43' W 000°37'1 1.1
2017-Jul-17 04:30N 37°43' W 000°37'1 1.6
2017-Jul-17 04:00N 37°42' W 000°36'2 3.3
2017-Jul-17 03:30N 37°41' W 000°35'2 3.3
2017-Jul-17 03:00N 37°40' W 000°33'2 3.8
2017-Jul-17 02:30N 37°39' W 000°32'5 7.1
2017-Jul-17 01:45N 37°33' W 000°31'14 9.9
2017-Jul-17 00:22N 37°24' W 000°44'  
2017-Jul-13 07:13N 37°02' W 001°49'0 1.5
2017-Jul-13 06:54N 37°02' W 001°50'1 2.1
2017-Jul-13 06:30N 37°01' W 001°51'34 3.2
2017-Jul-12 19:40N 36°28' W 001°60'  
Track history (hours):
 
Tides and Currents Weather Stations Pressure Air Temp Water Temp Dewpoint Dewpoint Depression Visibility Wind Speed Wind Dir Waves Ship Positions

Esperanza

Last reported at 2017-Jul-22 19:09 UTC. Time now 2017-Aug-20 13:40 UTC.
Position N 43°45' W 005°21'.
Warning: this ship's position is 28 days out of date.

Length 72 m; draft 5 m.

Type: Other ship. MMSI: 244690000.

Date/timePositionNaut miles runAvg speedWind from/ knotsBaromVisibWave heightAir tempDewpointWater temp
2017-Jul-22 19:09N 43°45' W 005°21'2 6.0
2017-Jul-22 18:48N 43°45' W 005°23'2 5.9
2017-Jul-22 18:29N 43°45' W 005°26'  
2017-Jul-20 10:13N 39°16' W 009°51'2 7.4
2017-Jul-20 10:00N 39°15' W 009°51'4 7.4
2017-Jul-20 09:30N 39°11' W 009°51'4 7.5
2017-Jul-20 09:00N 39°07' W 009°51'4 7.4
2017-Jul-20 08:30N 39°04' W 009°51'4 7.4
2017-Jul-20 08:00N 38°60' W 009°51'4 7.5
2017-Jul-20 07:30N 38°56' W 009°51'4 7.6
2017-Jul-20 07:00N 38°52' W 009°51'4 7.7
2017-Jul-20 06:30N 38°48' W 009°51'4 7.8
2017-Jul-20 06:00N 38°45' W 009°51'4 7.8
2017-Jul-20 05:30N 38°41' W 009°50'4 7.5
2017-Jul-20 05:00N 38°37' W 009°49'4 7.5
2017-Jul-20 04:30N 38°33' W 009°48'4 7.6
2017-Jul-20 04:00N 38°30' W 009°47'4 7.7
2017-Jul-20 03:30N 38°26' W 009°46'  
2017-Jul-17 10:08N 37°24' W 000°48'3 9.0
2017-Jul-17 09:48N 37°26' W 000°45'15 8.4
2017-Jul-17 07:59N 37°38' W 000°33'5 8.5
2017-Jul-17 07:21N 37°43' W 000°36'0 0.8
2017-Jul-17 07:00N 37°43' W 000°36'1 1.1
2017-Jul-17 06:28N 37°43' W 000°36'0 0.4
2017-Jul-17 06:00N 37°43' W 000°36'0 0.9
2017-Jul-17 05:30N 37°43' W 000°36'0 0.5
2017-Jul-17 05:00N 37°43' W 000°37'1 1.1
2017-Jul-17 04:30N 37°43' W 000°37'1 1.6
2017-Jul-17 04:00N 37°42' W 000°36'2 3.3
2017-Jul-17 03:30N 37°41' W 000°35'2 3.3
2017-Jul-17 03:00N 37°40' W 000°33'2 3.8
2017-Jul-17 02:30N 37°39' W 000°32'5 7.1
2017-Jul-17 01:45N 37°33' W 000°31'14 9.9
2017-Jul-17 00:22N 37°24' W 000°44'  
2017-Jul-13 07:13N 37°02' W 001°49'0 1.5
2017-Jul-13 06:54N 37°02' W 001°50'1 2.1
2017-Jul-13 06:30N 37°01' W 001°51'34 3.2
2017-Jul-12 19:40N 36°28' W 001°60'  

Dump ship's entire track history